sensor_id;sensor_type;location;lat;lon;timestamp;temperature;humidity
2893;DHT22;1456;51.840;12.184;2023-05-18T00:02:14;7.20;99.90
2893;DHT22;1456;51.840;12.184;2023-05-18T00:04:43;7.20;99.90
2893;DHT22;1456;51.840;12.184;2023-05-18T00:07:08;7.10;99.90
2893;DHT22;1456;51.840;12.184;2023-05-18T00:09:36;7.10;99.90
2893;DHT22;1456;51.840;12.184;2023-05-18T00:12:03;7.10;99.90
2893;DHT22;1456;51.840;12.184;2023-05-18T00:14:30;7.00;99.90
2893;DHT22;1456;51.840;12.184;2023-05-18T00:16:57;6.90;99.90
2893;DHT22;1456;51.840;12.184;2023-05-18T00:19:27;6.90;99.90
2893;DHT22;1456;51.840;12.184;2023-05-18T00:21:55;6.80;99.90
2893;DHT22;1456;51.840;12.184;2023-05-18T00:24:23;6.80;99.90
2893;DHT22;1456;51.840;12.184;2023-05-18T00:26:49;6.80;99.90
2893;DHT22;1456;51.840;12.184;2023-05-18T00:29:15;6.80;99.90
2893;DHT22;1456;51.840;12.184;2023-05-18T00:31:41;6.70;99.90
2893;DHT22;1456;51.840;12.184;2023-05-18T00:34:08;6.60;99.90
2893;DHT22;1456;51.840;12.184;2023-05-18T00:36:36;6.50;99.90
2893;DHT22;1456;51.840;12.184;2023-05-18T00:39:03;6.50;99.90
2893;DHT22;1456;51.840;12.184;2023-05-18T00:41:29;6.50;99.90
2893;DHT22;1456;51.840;12.184;2023-05-18T00:43:56;6.50;99.90
2893;DHT22;1456;51.840;12.184;2023-05-18T00:46:25;6.50;99.90
2893;DHT22;1456;51.840;12.184;2023-05-18T00:48:52;6.50;99.90
2893;DHT22;1456;51.840;12.184;2023-05-18T00:51:20;6.50;99.90
2893;DHT22;1456;51.840;12.184;2023-05-18T00:53:51;6.50;99.90
2893;DHT22;1456;51.840;12.184;2023-05-18T00:56:18;6.40;99.90
2893;DHT22;1456;51.840;12.184;2023-05-18T00:58:44;6.40;99.90
2893;DHT22;1456;51.840;12.184;2023-05-18T01:01:12;6.40;99.90
2893;DHT22;1456;51.840;12.184;2023-05-18T01:03:38;6.40;99.90
2893;DHT22;1456;51.840;12.184;2023-05-18T01:06:07;6.30;99.90
2893;DHT22;1456;51.840;12.184;2023-05-18T01:08:34;6.30;99.90
2893;DHT22;1456;51.840;12.184;2023-05-18T01:16:46;6.40;99.90
2893;DHT22;1456;51.840;12.184;2023-05-18T01:25:16;6.40;99.90
2893;DHT22;1456;51.840;12.184;2023-05-18T01:27:45;6.40;99.90
2893;DHT22;1456;51.840;12.184;2023-05-18T01:30:14;6.40;99.90
2893;DHT22;1456;51.840;12.184;2023-05-18T01:32:40;6.40;99.90
2893;DHT22;1456;51.840;12.184;2023-05-18T01:35:08;6.50;99.90
2893;DHT22;1456;51.840;12.184;2023-05-18T01:37:33;6.50;99.90
2893;DHT22;1456;51.840;12.184;2023-05-18T01:40:00;6.60;99.90
2893;DHT22;1456;51.840;12.184;2023-05-18T01:42:28;6.60;99.90
2893;DHT22;1456;51.840;12.184;2023-05-18T01:45:02;6.60;99.90
2893;DHT22;1456;51.840;12.184;2023-05-18T01:47:29;6.60;99.90
2893;DHT22;1456;51.840;12.184;2023-05-18T01:50:04;6.60;99.90
2893;DHT22;1456;51.840;12.184;2023-05-18T01:52:43;6.60;99.90
2893;DHT22;1456;51.840;12.184;2023-05-18T01:55:13;6.70;99.90
2893;DHT22;1456;51.840;12.184;2023-05-18T01:57:42;6.80;99.90
2893;DHT22;1456;51.840;12.184;2023-05-18T02:00:09;6.80;99.90
2893;DHT22;1456;51.840;12.184;2023-05-18T02:02:38;6.90;99.90
2893;DHT22;1456;51.840;12.184;2023-05-18T02:05:04;6.90;99.90
2893;DHT22;1456;51.840;12.184;2023-05-18T02:07:31;7.00;99.90
2893;DHT22;1456;51.840;12.184;2023-05-18T02:09:59;7.00;99.90
2893;DHT22;1456;51.840;12.184;2023-05-18T02:12:25;7.10;99.90
2893;DHT22;1456;51.840;12.184;2023-05-18T02:14:52;7.10;99.90
2893;DHT22;1456;51.840;12.184;2023-05-18T02:17:19;7.10;99.90
2893;DHT22;1456;51.840;12.184;2023-05-18T02:19:46;7.10;99.90
2893;DHT22;1456;51.840;12.184;2023-05-18T02:22:13;7.10;99.90
2893;DHT22;1456;51.840;12.184;2023-05-18T02:24:40;7.10;99.90
2893;DHT22;1456;51.840;12.184;2023-05-18T02:27:06;7.10;99.90
2893;DHT22;1456;51.840;12.184;2023-05-18T02:29:32;7.10;99.90
2893;DHT22;1456;51.840;12.184;2023-05-18T02:31:57;7.10;99.90
2893;DHT22;1456;51.840;12.184;2023-05-18T02:34:23;7.10;99.90
2893;DHT22;1456;51.840;12.184;2023-05-18T02:36:50;7.10;99.90
2893;DHT22;1456;51.840;12.184;2023-05-18T02:39:15;7.10;99.90
2893;DHT22;1456;51.840;12.184;2023-05-18T02:41:42;7.10;99.90
2893;DHT22;1456;51.840;12.184;2023-05-18T02:44:09;7.10;99.90
2893;DHT22;1456;51.840;12.184;2023-05-18T02:46:37;7.10;99.90
2893;DHT22;1456;51.840;12.184;2023-05-18T02:49:03;7.00;99.90
2893;DHT22;1456;51.840;12.184;2023-05-18T02:51:29;7.00;99.90
2893;DHT22;1456;51.840;12.184;2023-05-18T02:53:56;7.00;99.90
2893;DHT22;1456;51.840;12.184;2023-05-18T02:56:22;7.00;99.90
2893;DHT22;1456;51.840;12.184;2023-05-18T02:58:50;7.00;99.90
2893;DHT22;1456;51.840;12.184;2023-05-18T03:01:23;6.90;99.90
2893;DHT22;1456;51.840;12.184;2023-05-18T03:03:52;6.90;99.90
2893;DHT22;1456;51.840;12.184;2023-05-18T03:06:19;6.90;99.90
2893;DHT22;1456;51.840;12.184;2023-05-18T03:08:51;7.00;99.90
2893;DHT22;1456;51.840;12.184;2023-05-18T03:11:19;7.00;99.90
2893;DHT22;1456;51.840;12.184;2023-05-18T03:13:47;7.10;99.90
2893;DHT22;1456;51.840;12.184;2023-05-18T03:16:13;7.20;99.90
2893;DHT22;1456;51.840;12.184;2023-05-18T03:18:40;7.30;99.90
2893;DHT22;1456;51.840;12.184;2023-05-18T03:21:07;7.30;99.90
2893;DHT22;1456;51.840;12.184;2023-05-18T03:23:33;7.40;99.90
2893;DHT22;1456;51.840;12.184;2023-05-18T03:25:59;7.40;99.90
2893;DHT22;1456;51.840;12.184;2023-05-18T03:28:27;7.40;99.90
2893;DHT22;1456;51.840;12.184;2023-05-18T03:30:53;7.50;99.90
2893;DHT22;1456;51.840;12.184;2023-05-18T03:33:19;7.60;99.90
2893;DHT22;1456;51.840;12.184;2023-05-18T03:35:45;7.70;99.90
2893;DHT22;1456;51.840;12.184;2023-05-18T03:38:11;7.70;99.90
2893;DHT22;1456;51.840;12.184;2023-05-18T03:40:38;7.70;99.90
2893;DHT22;1456;51.840;12.184;2023-05-18T03:43:04;7.70;99.90
2893;DHT22;1456;51.840;12.184;2023-05-18T03:45:29;7.70;99.90
2893;DHT22;1456;51.840;12.184;2023-05-18T03:47:55;7.70;99.90
2893;DHT22;1456;51.840;12.184;2023-05-18T03:50:21;7.70;99.90
2893;DHT22;1456;51.840;12.184;2023-05-18T03:52:47;7.70;99.90
2893;DHT22;1456;51.840;12.184;2023-05-18T03:55:12;7.70;99.90
2893;DHT22;1456;51.840;12.184;2023-05-18T03:57:38;7.70;99.90
2893;DHT22;1456;51.840;12.184;2023-05-18T04:00:05;7.80;99.90
2893;DHT22;1456;51.840;12.184;2023-05-18T04:02:36;7.80;99.90
2893;DHT22;1456;51.840;12.184;2023-05-18T04:05:03;7.90;99.90
2893;DHT22;1456;51.840;12.184;2023-05-18T04:07:30;7.90;99.90
2893;DHT22;1456;51.840;12.184;2023-05-18T04:09:57;8.00;99.90
2893;DHT22;1456;51.840;12.184;2023-05-18T04:12:23;8.10;99.90
2893;DHT22;1456;51.840;12.184;2023-05-18T04:14:48;8.20;99.90
2893;DHT22;1456;51.840;12.184;2023-05-18T04:17:19;8.30;99.90
2893;DHT22;1456;51.840;12.184;2023-05-18T04:19:50;8.40;99.90
2893;DHT22;1456;51.840;12.184;2023-05-18T04:22:16;8.50;99.90
2893;DHT22;1456;51.840;12.184;2023-05-18T04:24:42;8.60;99.90
2893;DHT22;1456;51.840;12.184;2023-05-18T04:27:11;8.60;99.90
2893;DHT22;1456;51.840;12.184;2023-05-18T04:29:37;8.70;99.90
2893;DHT22;1456;51.840;12.184;2023-05-18T04:32:07;8.70;99.90
2893;DHT22;1456;51.840;12.184;2023-05-18T04:34:35;8.80;99.90
2893;DHT22;1456;51.840;12.184;2023-05-18T04:37:03;8.90;99.90
2893;DHT22;1456;51.840;12.184;2023-05-18T04:39:32;9.00;99.90
2893;DHT22;1456;51.840;12.184;2023-05-18T04:41:59;9.10;99.90
2893;DHT22;1456;51.840;12.184;2023-05-18T04:44:29;9.20;99.90
2893;DHT22;1456;51.840;12.184;2023-05-18T04:46:59;9.40;99.90
2893;DHT22;1456;51.840;12.184;2023-05-18T04:49:25;9.50;99.90
2893;DHT22;1456;51.840;12.184;2023-05-18T04:51:53;9.60;99.90
2893;DHT22;1456;51.840;12.184;2023-05-18T04:54:27;9.70;99.90
2893;DHT22;1456;51.840;12.184;2023-05-18T04:56:57;9.80;99.90
2893;DHT22;1456;51.840;12.184;2023-05-18T04:59:24;10.00;99.80
2893;DHT22;1456;51.840;12.184;2023-05-18T05:01:51;10.10;99.40
2893;DHT22;1456;51.840;12.184;2023-05-18T05:04:20;10.20;98.90
2893;DHT22;1456;51.840;12.184;2023-05-18T05:06:46;10.20;98.60
2893;DHT22;1456;51.840;12.184;2023-05-18T05:09:12;10.20;98.60
2893;DHT22;1456;51.840;12.184;2023-05-18T05:11:39;10.30;98.60
2893;DHT22;1456;51.840;12.184;2023-05-18T05:14:06;10.40;98.60
2893;DHT22;1456;51.840;12.184;2023-05-18T05:16:33;10.50;98.40
2893;DHT22;1456;51.840;12.184;2023-05-18T05:18:59;10.60;98.40
2893;DHT22;1456;51.840;12.184;2023-05-18T05:21:26;10.70;98.20
2893;DHT22;1456;51.840;12.184;2023-05-18T05:23:53;10.80;98.50
2893;DHT22;1456;51.840;12.184;2023-05-18T05:26:19;10.90;98.10
2893;DHT22;1456;51.840;12.184;2023-05-18T05:28:46;11.00;97.90
2893;DHT22;1456;51.840;12.184;2023-05-18T05:31:12;11.10;97.80
2893;DHT22;1456;51.840;12.184;2023-05-18T05:33:42;11.20;97.30
2893;DHT22;1456;51.840;12.184;2023-05-18T05:36:08;11.20;97.10
2893;DHT22;1456;51.840;12.184;2023-05-18T05:38:34;11.30;97.10
2893;DHT22;1456;51.840;12.184;2023-05-18T05:41:00;11.40;98.00
2893;DHT22;1456;51.840;12.184;2023-05-18T05:43:27;11.50;97.00
2893;DHT22;1456;51.840;12.184;2023-05-18T05:45:53;11.50;96.30
2893;DHT22;1456;51.840;12.184;2023-05-18T05:48:19;11.50;96.40
2893;DHT22;1456;51.840;12.184;2023-05-18T05:50:45;11.50;96.40
2893;DHT22;1456;51.840;12.184;2023-05-18T05:53:10;11.60;95.90
2893;DHT22;1456;51.840;12.184;2023-05-18T05:55:38;11.80;96.80
2893;DHT22;1456;51.840;12.184;2023-05-18T05:58:09;11.90;97.20
2893;DHT22;1456;51.840;12.184;2023-05-18T06:00:34;12.00;96.10
2893;DHT22;1456;51.840;12.184;2023-05-18T06:03:02;12.10;96.20
2893;DHT22;1456;51.840;12.184;2023-05-18T06:05:29;12.20;95.40
2893;DHT22;1456;51.840;12.184;2023-05-18T06:07:55;12.40;95.50
2893;DHT22;1456;51.840;12.184;2023-05-18T06:10:21;12.50;95.10
2893;DHT22;1456;51.840;12.184;2023-05-18T06:12:48;12.50;94.20
2893;DHT22;1456;51.840;12.184;2023-05-18T06:15:14;12.60;94.20
2893;DHT22;1456;51.840;12.184;2023-05-18T06:17:40;12.60;93.70
2893;DHT22;1456;51.840;12.184;2023-05-18T06:20:09;12.50;94.10
2893;DHT22;1456;51.840;12.184;2023-05-18T06:22:35;12.60;95.00
2893;DHT22;1456;51.840;12.184;2023-05-18T06:25:01;12.80;94.00
2893;DHT22;1456;51.840;12.184;2023-05-18T06:27:26;12.90;93.70
2893;DHT22;1456;51.840;12.184;2023-05-18T06:29:52;13.10;94.80
2893;DHT22;1456;51.840;12.184;2023-05-18T06:32:18;13.20;92.90
2893;DHT22;1456;51.840;12.184;2023-05-18T06:34:44;13.20;93.00
2893;DHT22;1456;51.840;12.184;2023-05-18T06:37:10;13.30;93.10
2893;DHT22;1456;51.840;12.184;2023-05-18T06:39:36;13.40;92.60
2893;DHT22;1456;51.840;12.184;2023-05-18T06:42:02;13.50;92.40
2893;DHT22;1456;51.840;12.184;2023-05-18T06:44:30;13.50;91.80
2893;DHT22;1456;51.840;12.184;2023-05-18T06:46:56;13.70;93.20
2893;DHT22;1456;51.840;12.184;2023-05-18T06:49:22;13.80;92.20
2893;DHT22;1456;51.840;12.184;2023-05-18T06:51:48;14.00;92.00
2893;DHT22;1456;51.840;12.184;2023-05-18T06:54:14;14.20;92.10
2893;DHT22;1456;51.840;12.184;2023-05-18T06:56:41;14.30;91.70
2893;DHT22;1456;51.840;12.184;2023-05-18T06:59:07;14.60;92.00
2893;DHT22;1456;51.840;12.184;2023-05-18T07:01:35;14.80;91.10
2893;DHT22;1456;51.840;12.184;2023-05-18T07:04:01;14.90;91.00
2893;DHT22;1456;51.840;12.184;2023-05-18T07:06:27;15.00;90.20
2893;DHT22;1456;51.840;12.184;2023-05-18T07:08:52;15.20;89.40
2893;DHT22;1456;51.840;12.184;2023-05-18T07:11:18;15.30;88.40
2893;DHT22;1456;51.840;12.184;2023-05-18T07:13:44;15.40;89.20
2893;DHT22;1456;51.840;12.184;2023-05-18T07:16:10;15.40;88.50
2893;DHT22;1456;51.840;12.184;2023-05-18T07:18:36;15.20;85.60
2893;DHT22;1456;51.840;12.184;2023-05-18T07:21:02;15.40;90.20
2893;DHT22;1456;51.840;12.184;2023-05-18T07:23:29;15.60;89.00
2893;DHT22;1456;51.840;12.184;2023-05-18T07:25:56;15.90;87.90
2893;DHT22;1456;51.840;12.184;2023-05-18T07:28:25;16.10;87.80
2893;DHT22;1456;51.840;12.184;2023-05-18T07:30:50;16.40;86.00
2893;DHT22;1456;51.840;12.184;2023-05-18T07:33:16;16.40;84.00
2893;DHT22;1456;51.840;12.184;2023-05-18T07:35:42;16.50;86.00
2893;DHT22;1456;51.840;12.184;2023-05-18T07:38:09;16.50;87.10
2893;DHT22;1456;51.840;12.184;2023-05-18T07:40:35;16.70;83.60
2893;DHT22;1456;51.840;12.184;2023-05-18T07:43:02;16.80;83.80
2893;DHT22;1456;51.840;12.184;2023-05-18T07:45:28;17.00;85.80
2893;DHT22;1456;51.840;12.184;2023-05-18T07:47:56;17.20;84.10
2893;DHT22;1456;51.840;12.184;2023-05-18T07:50:23;17.40;81.60
2893;DHT22;1456;51.840;12.184;2023-05-18T07:52:48;17.60;83.20
2893;DHT22;1456;51.840;12.184;2023-05-18T07:55:14;17.70;76.10
2893;DHT22;1456;51.840;12.184;2023-05-18T07:57:40;17.80;81.20
2893;DHT22;1456;51.840;12.184;2023-05-18T08:00:06;18.10;77.60
2893;DHT22;1456;51.840;12.184;2023-05-18T08:02:33;18.30;77.80
2893;DHT22;1456;51.840;12.184;2023-05-18T08:05:00;18.40;75.40
2893;DHT22;1456;51.840;12.184;2023-05-18T08:07:27;18.60;76.60
2893;DHT22;1456;51.840;12.184;2023-05-18T08:09:55;18.90;74.40
2893;DHT22;1456;51.840;12.184;2023-05-18T08:12:22;19.20;72.40
2893;DHT22;1456;51.840;12.184;2023-05-18T08:14:49;19.60;75.00
2893;DHT22;1456;51.840;12.184;2023-05-18T08:17:14;20.20;71.90
2893;DHT22;1456;51.840;12.184;2023-05-18T08:19:40;20.10;69.60
2893;DHT22;1456;51.840;12.184;2023-05-18T08:22:06;20.10;70.00
2893;DHT22;1456;51.840;12.184;2023-05-18T08:24:32;20.30;69.00
2893;DHT22;1456;51.840;12.184;2023-05-18T08:26:58;20.50;67.70
2893;DHT22;1456;51.840;12.184;2023-05-18T08:29:24;20.50;69.20
2893;DHT22;1456;51.840;12.184;2023-05-18T08:31:52;20.40;64.30
2893;DHT22;1456;51.840;12.184;2023-05-18T08:34:18;19.90;63.00
2893;DHT22;1456;51.840;12.184;2023-05-18T08:36:45;19.70;62.70
2893;DHT22;1456;51.840;12.184;2023-05-18T08:39:11;19.30;63.60
2893;DHT22;1456;51.840;12.184;2023-05-18T08:42:02;19.40;65.80
2893;DHT22;1456;51.840;12.184;2023-05-18T08:47:30;20.10;67.60
2893;DHT22;1456;51.840;12.184;2023-05-18T08:50:00;20.50;66.20
2893;DHT22;1456;51.840;12.184;2023-05-18T08:52:27;21.00;65.80
2893;DHT22;1456;51.840;12.184;2023-05-18T08:54:58;21.30;62.90
2893;DHT22;1456;51.840;12.184;2023-05-18T08:57:26;21.40;62.40
2893;DHT22;1456;51.840;12.184;2023-05-18T08:59:54;21.70;58.70
2893;DHT22;1456;51.840;12.184;2023-05-18T09:02:20;21.80;63.90
2893;DHT22;1456;51.840;12.184;2023-05-18T09:04:47;22.00;62.10
2893;DHT22;1456;51.840;12.184;2023-05-18T09:07:13;22.40;59.30
2893;DHT22;1456;51.840;12.184;2023-05-18T09:09:40;22.50;57.30
2893;DHT22;1456;51.840;12.184;2023-05-18T09:12:07;22.70;59.80
2893;DHT22;1456;51.840;12.184;2023-05-18T09:14:35;22.40;57.60
2893;DHT22;1456;51.840;12.184;2023-05-18T09:17:00;21.80;57.10
2893;DHT22;1456;51.840;12.184;2023-05-18T09:19:27;21.40;57.00
2893;DHT22;1456;51.840;12.184;2023-05-18T09:21:53;21.40;58.50
2893;DHT22;1456;51.840;12.184;2023-05-18T09:24:20;21.40;57.30
2893;DHT22;1456;51.840;12.184;2023-05-18T09:26:46;21.40;57.60
2893;DHT22;1456;51.840;12.184;2023-05-18T09:29:17;21.50;54.90
2893;DHT22;1456;51.840;12.184;2023-05-18T09:31:44;20.90;55.10
2893;DHT22;1456;51.840;12.184;2023-05-18T09:34:11;20.70;56.20
2893;DHT22;1456;51.840;12.184;2023-05-18T09:36:37;20.60;57.80
2893;DHT22;1456;51.840;12.184;2023-05-18T09:39:08;20.70;56.60
2893;DHT22;1456;51.840;12.184;2023-05-18T09:41:37;21.00;57.60
2893;DHT22;1456;51.840;12.184;2023-05-18T09:44:04;21.20;56.70
2893;DHT22;1456;51.840;12.184;2023-05-18T09:46:38;21.30;57.30
2893;DHT22;1456;51.840;12.184;2023-05-18T09:49:06;21.70;56.10
2893;DHT22;1456;51.840;12.184;2023-05-18T09:51:38;22.10;56.30
2893;DHT22;1456;51.840;12.184;2023-05-18T09:54:06;23.00;58.40
2893;DHT22;1456;51.840;12.184;2023-05-18T09:56:35;23.90;54.10
2893;DHT22;1456;51.840;12.184;2023-05-18T09:59:12;24.50;54.30
2893;DHT22;1456;51.840;12.184;2023-05-18T10:01:58;25.00;57.30
2893;DHT22;1456;51.840;12.184;2023-05-18T10:04:40;24.50;52.90
2893;DHT22;1456;51.840;12.184;2023-05-18T10:07:14;24.10;52.10
2893;DHT22;1456;51.840;12.184;2023-05-18T10:09:42;23.80;50.90
2893;DHT22;1456;51.840;12.184;2023-05-18T10:12:15;23.50;52.20
2893;DHT22;1456;51.840;12.184;2023-05-18T10:14:43;23.30;50.70
2893;DHT22;1456;51.840;12.184;2023-05-18T10:17:14;23.10;52.90
2893;DHT22;1456;51.840;12.184;2023-05-18T10:19:41;23.10;51.70
2893;DHT22;1456;51.840;12.184;2023-05-18T10:22:07;23.30;51.20
2893;DHT22;1456;51.840;12.184;2023-05-18T10:24:38;23.10;50.00
2893;DHT22;1456;51.840;12.184;2023-05-18T10:27:07;23.00;52.80
2893;DHT22;1456;51.840;12.184;2023-05-18T10:29:35;22.70;52.90
2893;DHT22;1456;51.840;12.184;2023-05-18T10:32:03;23.50;53.60
2893;DHT22;1456;51.840;12.184;2023-05-18T10:34:31;24.00;54.10
2893;DHT22;1456;51.840;12.184;2023-05-18T10:37:00;24.10;53.30
2893;DHT22;1456;51.840;12.184;2023-05-18T10:39:28;24.80;54.00
2893;DHT22;1456;51.840;12.184;2023-05-18T10:41:55;26.20;53.60
2893;DHT22;1456;51.840;12.184;2023-05-18T10:44:23;27.80;50.10
2893;DHT22;1456;51.840;12.184;2023-05-18T10:46:49;29.00;49.50
2893;DHT22;1456;51.840;12.184;2023-05-18T10:49:20;29.70;46.80
2893;DHT22;1456;51.840;12.184;2023-05-18T10:51:51;30.70;45.20
2893;DHT22;1456;51.840;12.184;2023-05-18T10:54:17;31.80;44.90
2893;DHT22;1456;51.840;12.184;2023-05-18T10:56:47;32.50;41.80
2893;DHT22;1456;51.840;12.184;2023-05-18T10:59:15;32.30;44.00
2893;DHT22;1456;51.840;12.184;2023-05-18T11:01:44;32.70;38.30
2893;DHT22;1456;51.840;12.184;2023-05-18T11:04:11;33.00;36.80
2893;DHT22;1456;51.840;12.184;2023-05-18T11:06:37;31.70;36.20
2893;DHT22;1456;51.840;12.184;2023-05-18T11:09:04;30.10;37.70
2893;DHT22;1456;51.840;12.184;2023-05-18T11:11:52;29.50;36.30
2893;DHT22;1456;51.840;12.184;2023-05-18T11:14:28;28.60;39.80
2893;DHT22;1456;51.840;12.184;2023-05-18T11:17:15;27.20;38.80
2893;DHT22;1456;51.840;12.184;2023-05-18T11:27:58;27.90;39.00
2893;DHT22;1456;51.840;12.184;2023-05-18T11:38:22;26.20;39.50
2893;DHT22;1456;51.840;12.184;2023-05-18T11:40:49;26.70;40.10
2893;DHT22;1456;51.840;12.184;2023-05-18T11:43:33;27.70;38.60
2893;DHT22;1456;51.840;12.184;2023-05-18T11:45:59;28.60;38.20
2893;DHT22;1456;51.840;12.184;2023-05-18T11:48:26;29.60;38.40
2893;DHT22;1456;51.840;12.184;2023-05-18T11:50:55;30.40;39.40
2893;DHT22;1456;51.840;12.184;2023-05-18T11:53:25;31.70;45.90
2893;DHT22;1456;51.840;12.184;2023-05-18T11:55:52;33.00;37.60
2893;DHT22;1456;51.840;12.184;2023-05-18T11:58:19;34.10;37.70
2893;DHT22;1456;51.840;12.184;2023-05-18T12:00:47;35.30;36.60
2893;DHT22;1456;51.840;12.184;2023-05-18T12:03:13;35.50;34.10
2893;DHT22;1456;51.840;12.184;2023-05-18T12:05:40;35.20;33.70
2893;DHT22;1456;51.840;12.184;2023-05-18T12:08:18;35.40;35.00
2893;DHT22;1456;51.840;12.184;2023-05-18T12:10:44;36.00;35.30
2893;DHT22;1456;51.840;12.184;2023-05-18T12:13:15;36.10;32.70
2893;DHT22;1456;51.840;12.184;2023-05-18T12:15:43;36.30;32.40
2893;DHT22;1456;51.840;12.184;2023-05-18T12:18:09;35.80;32.50
2893;DHT22;1456;51.840;12.184;2023-05-18T12:20:38;34.60;31.70
2893;DHT22;1456;51.840;12.184;2023-05-18T12:23:04;33.10;34.20
2893;DHT22;1456;51.840;12.184;2023-05-18T12:25:29;31.60;34.00
2893;DHT22;1456;51.840;12.184;2023-05-18T12:27:55;30.60;34.80
2893;DHT22;1456;51.840;12.184;2023-05-18T12:30:23;29.40;35.40
2893;DHT22;1456;51.840;12.184;2023-05-18T12:32:54;28.60;35.60
2893;DHT22;1456;51.840;12.184;2023-05-18T12:35:27;29.20;36.60
2893;DHT22;1456;51.840;12.184;2023-05-18T12:37:54;31.20;37.70
2893;DHT22;1456;51.840;12.184;2023-05-18T12:40:21;33.60;35.10
2893;DHT22;1456;51.840;12.184;2023-05-18T12:42:57;35.60;33.00
2893;DHT22;1456;51.840;12.184;2023-05-18T12:45:31;36.80;30.30
2893;DHT22;1456;51.840;12.184;2023-05-18T12:48:07;36.90;30.70
2893;DHT22;1456;51.840;12.184;2023-05-18T12:50:34;36.00;30.90
2893;DHT22;1456;51.840;12.184;2023-05-18T12:53:01;34.20;31.50
2893;DHT22;1456;51.840;12.184;2023-05-18T12:55:28;33.10;33.00
2893;DHT22;1456;51.840;12.184;2023-05-18T12:58:04;31.90;33.20
2893;DHT22;1456;51.840;12.184;2023-05-18T13:03:12;31.40;35.80
2893;DHT22;1456;51.840;12.184;2023-05-18T13:05:40;32.10;33.70
2893;DHT22;1456;51.840;12.184;2023-05-18T13:08:07;32.90;33.90
2893;DHT22;1456;51.840;12.184;2023-05-18T13:10:33;33.10;33.60
2893;DHT22;1456;51.840;12.184;2023-05-18T13:12:59;33.50;31.40
2893;DHT22;1456;51.840;12.184;2023-05-18T13:15:37;32.90;32.30
2893;DHT22;1456;51.840;12.184;2023-05-18T13:18:07;33.30;33.30
2893;DHT22;1456;51.840;12.184;2023-05-18T13:23:13;30.90;33.20
2893;DHT22;1456;51.840;12.184;2023-05-18T13:25:40;30.20;32.40
2893;DHT22;1456;51.840;12.184;2023-05-18T13:28:07;29.50;31.80
2893;DHT22;1456;51.840;12.184;2023-05-18T13:30:35;28.20;33.00
2893;DHT22;1456;51.840;12.184;2023-05-18T13:33:01;29.20;32.70
2893;DHT22;1456;51.840;12.184;2023-05-18T13:35:26;30.80;33.30
2893;DHT22;1456;51.840;12.184;2023-05-18T13:37:52;33.40;34.20
2893;DHT22;1456;51.840;12.184;2023-05-18T13:40:19;36.20;33.20
2893;DHT22;1456;51.840;12.184;2023-05-18T13:42:46;38.40;32.10
2893;DHT22;1456;51.840;12.184;2023-05-18T13:45:14;39.20;30.10
2893;DHT22;1456;51.840;12.184;2023-05-18T13:47:41;37.50;30.00
2893;DHT22;1456;51.840;12.184;2023-05-18T13:50:08;35.50;30.30
2893;DHT22;1456;51.840;12.184;2023-05-18T13:52:34;33.80;30.20
2893;DHT22;1456;51.840;12.184;2023-05-18T13:55:05;31.70;30.30
2893;DHT22;1456;51.840;12.184;2023-05-18T13:57:31;30.20;33.20
2893;DHT22;1456;51.840;12.184;2023-05-18T13:59:57;29.60;33.30
2893;DHT22;1456;51.840;12.184;2023-05-18T14:02:26;29.50;33.50
2893;DHT22;1456;51.840;12.184;2023-05-18T14:04:52;30.30;33.80
2893;DHT22;1456;51.840;12.184;2023-05-18T14:07:18;31.30;34.00
2893;DHT22;1456;51.840;12.184;2023-05-18T14:09:43;32.20;34.30
2893;DHT22;1456;51.840;12.184;2023-05-18T14:12:09;33.30;30.80
2893;DHT22;1456;51.840;12.184;2023-05-18T14:14:36;34.20;31.40
2893;DHT22;1456;51.840;12.184;2023-05-18T14:17:02;34.70;30.00
2893;DHT22;1456;51.840;12.184;2023-05-18T14:19:27;34.60;31.50
2893;DHT22;1456;51.840;12.184;2023-05-18T14:21:53;34.90;30.50
2893;DHT22;1456;51.840;12.184;2023-05-18T14:24:20;35.20;30.10
2893;DHT22;1456;51.840;12.184;2023-05-18T14:26:45;34.30;30.10
2893;DHT22;1456;51.840;12.184;2023-05-18T14:29:11;32.90;32.10
2893;DHT22;1456;51.840;12.184;2023-05-18T14:31:37;32.00;32.60
2893;DHT22;1456;51.840;12.184;2023-05-18T14:34:03;31.80;32.30
2893;DHT22;1456;51.840;12.184;2023-05-18T14:36:29;31.80;32.70
2893;DHT22;1456;51.840;12.184;2023-05-18T14:38:55;31.10;31.70
2893;DHT22;1456;51.840;12.184;2023-05-18T14:41:22;30.00;32.70
2893;DHT22;1456;51.840;12.184;2023-05-18T14:43:47;29.10;33.50
2893;DHT22;1456;51.840;12.184;2023-05-18T14:46:15;28.50;34.70
2893;DHT22;1456;51.840;12.184;2023-05-18T14:48:41;28.60;33.70
2893;DHT22;1456;51.840;12.184;2023-05-18T14:51:06;30.30;33.30
2893;DHT22;1456;51.840;12.184;2023-05-18T14:53:32;32.30;32.00
2893;DHT22;1456;51.840;12.184;2023-05-18T14:55:58;34.20;31.70
2893;DHT22;1456;51.840;12.184;2023-05-18T14:58:24;34.80;31.20
2893;DHT22;1456;51.840;12.184;2023-05-18T15:00:49;35.80;31.10
2893;DHT22;1456;51.840;12.184;2023-05-18T15:03:15;36.50;32.30
2893;DHT22;1456;51.840;12.184;2023-05-18T15:05:41;36.30;29.70
2893;DHT22;1456;51.840;12.184;2023-05-18T15:08:09;35.10;30.90
2893;DHT22;1456;51.840;12.184;2023-05-18T15:10:35;33.70;31.70
2893;DHT22;1456;51.840;12.184;2023-05-18T15:13:01;33.10;32.00
2893;DHT22;1456;51.840;12.184;2023-05-18T15:15:26;33.40;30.90
2893;DHT22;1456;51.840;12.184;2023-05-18T15:17:52;33.70;32.00
2893;DHT22;1456;51.840;12.184;2023-05-18T15:20:18;33.80;31.20
2893;DHT22;1456;51.840;12.184;2023-05-18T15:22:43;33.10;31.30
2893;DHT22;1456;51.840;12.184;2023-05-18T15:25:09;31.60;30.20
2893;DHT22;1456;51.840;12.184;2023-05-18T15:27:36;30.40;31.00
2893;DHT22;1456;51.840;12.184;2023-05-18T15:30:03;29.00;31.80
2893;DHT22;1456;51.840;12.184;2023-05-18T15:32:38;27.50;32.30
2893;DHT22;1456;51.840;12.184;2023-05-18T15:35:05;27.10;34.30
2893;DHT22;1456;51.840;12.184;2023-05-18T15:37:31;27.50;35.70
2893;DHT22;1456;51.840;12.184;2023-05-18T15:39:57;30.00;35.40
2893;DHT22;1456;51.840;12.184;2023-05-18T15:42:23;32.80;32.40
2893;DHT22;1456;51.840;12.184;2023-05-18T15:44:49;34.10;30.20
2893;DHT22;1456;51.840;12.184;2023-05-18T15:47:15;33.40;30.20
2893;DHT22;1456;51.840;12.184;2023-05-18T15:49:40;31.50;30.80
2893;DHT22;1456;51.840;12.184;2023-05-18T15:52:06;30.10;32.10
2893;DHT22;1456;51.840;12.184;2023-05-18T15:54:33;30.00;32.90
2893;DHT22;1456;51.840;12.184;2023-05-18T15:56:59;30.20;31.00
2893;DHT22;1456;51.840;12.184;2023-05-18T15:59:25;29.30;31.20
2893;DHT22;1456;51.840;12.184;2023-05-18T16:01:51;29.00;31.20
2893;DHT22;1456;51.840;12.184;2023-05-18T16:04:17;28.90;31.80
2893;DHT22;1456;51.840;12.184;2023-05-18T16:06:43;29.40;32.70
2893;DHT22;1456;51.840;12.184;2023-05-18T16:09:08;31.00;31.70
2893;DHT22;1456;51.840;12.184;2023-05-18T16:11:34;33.00;31.70
2893;DHT22;1456;51.840;12.184;2023-05-18T16:14:00;34.20;30.20
2893;DHT22;1456;51.840;12.184;2023-05-18T16:16:26;34.60;30.00
2893;DHT22;1456;51.840;12.184;2023-05-18T16:18:53;33.50;29.60
2893;DHT22;1456;51.840;12.184;2023-05-18T16:21:19;31.90;30.90
2893;DHT22;1456;51.840;12.184;2023-05-18T16:23:45;29.90;31.20
2893;DHT22;1456;51.840;12.184;2023-05-18T16:26:11;27.90;32.10
2893;DHT22;1456;51.840;12.184;2023-05-18T16:28:38;26.40;33.20